Time;durP1;ratioP1;P1;durP2;ratioP2;P2;SDS_P1;SDS_P2;PMS_P1;PMS_P2;Temp;Humidity;BMP_temperature;BMP_pressure;BME280_temperature;BME280_humidity;BME280_pressure;Samples;Min_cycle;Max_cycle;Signal;HPM_P1;HPM_P2
2023/10/22 00:01:30;;;;;;;2.72;0.80;;;19.90;67.70;;;;;;6278116;22;20030;-66
2023/10/22 00:03:56;;;;;;;2.70;0.50;;;19.90;67.70;;;;;;6307451;22;20015;-66
2023/10/22 00:06:22;;;;;;;2.50;0.80;;;19.90;67.70;;;;;;6279404;22;20021;-66
2023/10/22 00:08:47;;;;;;;1.40;0.38;;;19.90;67.70;;;;;;6279270;22;20007;-66
2023/10/22 00:11:13;;;;;;;1.73;0.50;;;19.90;67.70;;;;;;6305617;22;20340;-66
2023/10/22 00:13:39;;;;;;;1.73;0.55;;;19.90;67.60;;;;;;6279979;22;20045;-66
2023/10/22 00:16:04;;;;;;;3.45;0.75;;;19.90;67.60;;;;;;6278887;22;20099;-67
2023/10/22 00:18:30;;;;;;;1.35;0.50;;;19.90;67.60;;;;;;6279881;22;20019;-67
2023/10/22 00:20:55;;;;;;;1.90;0.52;;;19.90;67.60;;;;;;6279906;22;20477;-67
2023/10/22 00:23:21;;;;;;;2.45;0.70;;;19.80;67.60;;;;;;6278764;22;20045;-67
2023/10/22 00:25:48;;;;;;;3.17;0.68;;;19.90;67.60;;;;;;6279524;22;20015;-66
2023/10/22 00:28:13;;;;;;;1.90;0.50;;;19.80;67.60;;;;;;6279587;22;20027;-66
2023/10/22 00:30:39;;;;;;;2.42;0.77;;;19.80;67.60;;;;;;6278489;22;20090;-67
2023/10/22 00:33:05;;;;;;;1.48;0.40;;;19.80;67.60;;;;;;6279885;22;20023;-66
2023/10/22 00:35:30;;;;;;;2.30;0.65;;;19.80;67.60;;;;;;6279495;22;20098;-66
2023/10/22 00:37:56;;;;;;;3.60;0.60;;;19.80;67.60;;;;;;6278996;22;20026;-67
2023/10/22 00:40:22;;;;;;;1.88;0.52;;;19.80;67.60;;;;;;6306619;22;20015;-66
2023/10/22 00:42:48;;;;;;;2.45;0.60;;;19.80;67.50;;;;;;6279128;22;20038;-66
2023/10/22 00:45:14;;;;;;;1.95;0.45;;;19.80;67.60;;;;;;6279056;22;20030;-66
2023/10/22 00:47:39;;;;;;;1.90;0.50;;;19.80;67.50;;;;;;6279832;22;20015;-66
2023/10/22 00:50:06;;;;;;;2.88;0.40;;;19.80;67.50;;;;;;6278533;22;20347;-66
2023/10/22 00:52:32;;;;;;;2.33;0.50;;;19.80;67.50;;;;;;6279240;22;20015;-66
2023/10/22 00:54:58;;;;;;;2.75;0.60;;;19.80;67.50;;;;;;6253625;22;20015;-66
2023/10/22 00:57:23;;;;;;;2.38;0.50;;;19.80;67.50;;;;;;6252476;22;20431;-66
2023/10/22 00:59:52;;;;;;;1.02;0.32;;;19.80;67.40;;;;;;6253904;22;20049;-66
2023/10/22 01:02:21;;;;;;;3.78;0.52;;;19.80;67.40;;;;;;6254718;22;20027;-67
2023/10/22 01:04:46;;;;;;;1.75;0.52;;;19.80;67.30;;;;;;6278734;22;20014;-67
2023/10/22 01:07:12;;;;;;;2.53;0.50;;;19.80;67.30;;;;;;6306961;22;20019;-66
2023/10/22 01:09:38;;;;;;;1.23;0.28;;;19.80;67.20;;;;;;6279209;22;20050;-66
2023/10/22 01:12:04;;;;;;;2.08;0.50;;;19.80;67.90;;;;;;6306078;22;20022;-67
2023/10/22 01:14:30;;;;;;;1.58;0.50;;;19.70;67.20;;;;;;6279153;22;20015;-67
2023/10/22 01:16:56;;;;;;;2.50;0.82;;;19.80;67.20;;;;;;6307105;22;20022;-66
2023/10/22 01:19:22;;;;;;;1.73;0.40;;;19.70;67.20;;;;;;6305236;22;20466;-66
2023/10/22 01:21:48;;;;;;;1.48;0.40;;;19.70;67.20;;;;;;6307519;22;20094;-66
2023/10/22 01:24:13;;;;;;;2.30;0.50;;;19.70;67.20;;;;;;6308582;22;20019;-66
2023/10/22 01:26:42;;;;;;;2.15;0.50;;;19.70;67.20;;;;;;6280191;22;20018;-67
2023/10/22 01:29:08;;;;;;;1.48;0.43;;;19.70;67.10;;;;;;6309195;22;20069;-67
2023/10/22 01:31:34;;;;;;;2.33;0.50;;;19.70;67.20;;;;;;6280820;22;20445;-67
2023/10/22 01:33:59;;;;;;;0.68;0.43;;;19.70;67.10;;;;;;6307674;22;20023;-67
2023/10/22 01:36:25;;;;;;;2.63;0.60;;;19.70;67.10;;;;;;6308560;22;20015;-67
2023/10/22 01:38:50;;;;;;;1.85;0.70;;;19.70;67.10;;;;;;6308755;22;20023;-67
2023/10/22 01:41:16;;;;;;;0.52;0.30;;;19.70;67.10;;;;;;6279482;22;20054;-67
2023/10/22 01:43:41;;;;;;;1.75;0.35;;;19.70;67.10;;;;;;6309310;22;20069;-67
2023/10/22 01:46:07;;;;;;;1.60;0.50;;;19.70;67.20;;;;;;6308260;22;20015;-67
2023/10/22 01:48:32;;;;;;;2.45;0.47;;;19.70;67.20;;;;;;6309204;22;20019;-66
2023/10/22 01:50:58;;;;;;;0.90;0.35;;;19.70;67.20;;;;;;6308635;22;20035;-66
2023/10/22 01:53:24;;;;;;;1.77;0.40;;;19.70;67.10;;;;;;6278715;22;20567;-67
2023/10/22 01:55:50;;;;;;;1.83;0.60;;;19.70;67.20;;;;;;6307898;22;20023;-67
2023/10/22 01:58:15;;;;;;;1.70;0.60;;;19.70;67.10;;;;;;6308754;22;20015;-67
2023/10/22 02:00:41;;;;;;;1.50;0.40;;;19.70;67.10;;;;;;6280125;22;20022;-67
2023/10/22 02:03:06;;;;;;;0.93;0.20;;;19.70;67.10;;;;;;6309529;22;20023;-66
2023/10/22 02:05:33;;;;;;;1.10;0.40;;;19.60;67.00;;;;;;6281055;22;20515;-67
2023/10/22 02:07:58;;;;;;;2.13;0.40;;;19.70;67.00;;;;;;6280200;22;20025;-66
2023/10/22 02:10:24;;;;;;;2.00;0.82;;;19.70;67.00;;;;;;6280226;22;20102;-66
2023/10/22 02:12:50;;;;;;;1.75;0.40;;;19.70;67.00;;;;;;6281262;22;20059;-67
2023/10/22 02:15:16;;;;;;;2.10;0.40;;;19.60;66.90;;;;;;6280146;22;20019;-66
2023/10/22 02:17:42;;;;;;;2.38;0.45;;;19.60;66.90;;;;;;6308978;22;20431;-66
2023/10/22 02:20:09;;;;;;;1.45;0.50;;;19.60;67.00;;;;;;6280674;22;20023;-66
2023/10/22 02:22:37;;;;;;;1.75;0.30;;;19.60;66.90;;;;;;6307763;22;20023;-66
2023/10/22 02:25:04;;;;;;;1.63;0.55;;;19.70;67.00;;;;;;6308015;22;20030;-66
2023/10/22 02:27:31;;;;;;;0.95;0.40;;;19.60;66.90;;;;;;6280151;22;20022;-67
2023/10/22 02:29:56;;;;;;;2.30;0.50;;;19.60;66.90;;;;;;6307879;22;20065;-66
2023/10/22 02:32:22;;;;;;;1.60;0.40;;;19.60;66.90;;;;;;6308167;22;20019;-67
2023/10/22 02:34:47;;;;;;;0.90;0.40;;;19.60;66.90;;;;;;6307841;22;20336;-67
2023/10/22 02:37:13;;;;;;;3.30;0.60;;;19.60;66.90;;;;;;6307433;22;20061;-67
2023/10/22 02:39:38;;;;;;;1.20;0.30;;;19.60;66.80;;;;;;6307235;22;20023;-67
2023/10/22 02:42:05;;;;;;;1.42;0.30;;;19.60;66.80;;;;;;6279749;22;20015;-66
2023/10/22 02:44:30;;;;;;;1.83;0.40;;;19.60;66.80;;;;;;6279245;22;20011;-66
2023/10/22 02:46:58;;;;;;;2.13;0.55;;;19.60;66.80;;;;;;6280901;22;20094;-66
2023/10/22 02:49:24;;;;;;;;;;;19.60;66.80;;;;;;6279032;22;20015;-67
2023/10/22 02:51:50;;;;;;;1.30;0.50;;;19.60;66.80;;;;;;6280500;22;19960;-67
2023/10/22 02:54:15;;;;;;;1.45;0.28;;;19.60;66.90;;;;;;6307866;22;20088;-67
2023/10/22 02:56:42;;;;;;;1.63;0.35;;;19.60;66.90;;;;;;6279108;22;20508;-66
2023/10/22 02:59:08;;;;;;;3.33;0.75;;;19.60;66.90;;;;;;6280617;22;20030;-67
2023/10/22 03:01:33;;;;;;;1.80;0.43;;;19.60;66.90;;;;;;6280399;22;20019;-66
2023/10/22 03:03:59;;;;;;;2.50;0.50;;;19.60;66.90;;;;;;6279494;22;20347;-66
2023/10/22 03:06:24;;;;;;;2.33;0.40;;;19.60;66.90;;;;;;6280036;22;20018;-67
2023/10/22 03:08:50;;;;;;;2.65;0.50;;;19.60;67.00;;;;;;6280832;22;20023;-67
2023/10/22 03:11:17;;;;;;;1.05;0.35;;;19.60;66.90;;;;;;6279209;22;20019;-67
2023/10/22 03:13:43;;;;;;;1.63;0.40;;;19.60;66.90;;;;;;6280591;22;20076;-66
2023/10/22 03:16:11;;;;;;;1.33;0.40;;;19.60;66.90;;;;;;6307861;22;20015;-67
2023/10/22 03:18:37;;;;;;;1.92;0.30;;;19.60;66.90;;;;;;6278973;22;20019;-67
2023/10/22 03:21:28;;;;;;;2.33;0.32;;;19.60;66.90;;;;;;6307782;22;20069;-66
2023/10/22 03:23:55;;;;;;;1.42;0.40;;;19.60;66.90;;;;;;6308387;22;20026;-67
2023/10/22 03:26:21;;;;;;;0.82;0.22;;;19.60;66.90;;;;;;6306300;22;20026;-67
2023/10/22 03:28:47;;;;;;;0.82;0.30;;;19.70;67.00;;;;;;6280354;22;20091;-67
2023/10/22 03:31:13;;;;;;;1.58;0.50;;;19.60;66.90;;;;;;6279826;22;20030;-67
2023/10/22 03:33:39;;;;;;;0.55;0.30;;;19.60;66.90;;;;;;6306920;22;20097;-67
2023/10/22 03:36:05;;;;;;;1.30;0.30;;;19.60;66.90;;;;;;6279532;22;20019;-67
2023/10/22 03:38:31;;;;;;;1.55;0.38;;;19.70;66.90;;;;;;6254316;22;20011;-67
2023/10/22 03:41:00;;;;;;;1.33;0.30;;;19.70;66.90;;;;;;6306660;22;20435;-67
2023/10/22 03:43:29;;;;;;;1.10;0.30;;;19.70;66.90;;;;;;6305402;22;20023;-67
2023/10/22 03:45:58;;;;;;;1.35;0.77;;;19.70;66.90;;;;;;6279027;22;20085;-67
2023/10/22 03:48:24;;;;;;;0.73;0.30;;;19.70;66.90;;;;;;6305577;22;20015;-66
2023/10/22 03:50:50;;;;;;;1.27;0.35;;;19.80;66.90;;;;;;6279587;22;20050;-67
2023/10/22 03:53:16;;;;;;;2.80;0.30;;;19.80;66.90;;;;;;6278868;22;20015;-67
2023/10/22 03:55:41;;;;;;;0.80;0.32;;;19.80;67.50;;;;;;6279449;22;20411;-67
2023/10/22 03:58:07;;;;;;;0.88;0.30;;;19.80;66.90;;;;;;6280385;22;20462;-67
2023/10/22 04:00:33;;;;;;;2.40;0.40;;;19.80;66.90;;;;;;6278749;22;20094;-66
2023/10/22 04:03:00;;;;;;;4.15;0.60;;;19.80;66.90;;;;;;6306632;22;20015;-67
2023/10/22 04:05:25;;;;;;;0.60;0.30;;;19.80;66.90;;;;;;6278916;22;20088;-67
2023/10/22 04:07:51;;;;;;;1.67;0.30;;;19.80;66.90;;;;;;6306559;22;20439;-67
2023/10/22 04:10:16;;;;;;;1.33;0.30;;;19.80;66.80;;;;;;6306496;22;20026;-67
2023/10/22 04:12:42;;;;;;;1.02;0.30;;;19.90;66.90;;;;;;6280024;22;20061;-66
2023/10/22 04:15:08;;;;;;;1.52;0.45;;;19.90;66.90;;;;;;6278600;22;20026;-67
2023/10/22 04:17:34;;;;;;;1.33;0.40;;;19.90;66.90;;;;;;6279766;22;20073;-66
2023/10/22 04:19:59;;;;;;;1.38;0.20;;;19.90;66.90;;;;;;6307322;22;20026;-67
2023/10/22 04:22:26;;;;;;;1.13;0.20;;;19.90;66.80;;;;;;6306399;22;20019;-67
2023/10/22 04:24:52;;;;;;;1.85;0.30;;;20.00;66.90;;;;;;6279556;22;20023;-68
2023/10/22 04:27:17;;;;;;;0.93;0.20;;;20.00;66.80;;;;;;6306536;22;20099;-67
2023/10/22 04:29:46;;;;;;;0.75;0.30;;;20.00;66.90;;;;;;6279080;22;20495;-67
2023/10/22 04:32:12;;;;;;;;;;;19.90;67.40;;;;;;6307325;22;20086;-67
2023/10/22 04:34:37;;;;;;;1.25;0.30;;;20.00;66.90;;;;;;6306574;22;19995;-67
2023/10/22 04:37:04;;;;;;;1.30;0.30;;;20.00;66.90;;;;;;6306613;22;20022;-67
2023/10/22 04:39:30;;;;;;;0.80;0.30;;;20.00;66.80;;;;;;6307021;22;20034;-67
2023/10/22 04:41:56;;;;;;;2.00;0.40;;;20.00;66.80;;;;;;6306743;22;20023;-67
2023/10/22 04:44:22;;;;;;;1.38;0.40;;;20.00;66.80;;;;;;6279239;22;20068;-67
2023/10/22 04:46:48;;;;;;;0.90;0.30;;;20.00;66.80;;;;;;6307517;22;20060;-66
2023/10/22 04:49:13;;;;;;;1.08;0.30;;;20.00;66.90;;;;;;6277861;22;20451;-66
2023/10/22 04:51:39;;;;;;;0.57;0.20;;;20.00;66.90;;;;;;6307244;22;20101;-67
2023/10/22 04:54:05;;;;;;;1.55;0.30;;;20.00;66.80;;;;;;6307383;22;20023;-67
2023/10/22 04:56:31;;;;;;;1.27;0.30;;;20.00;66.90;;;;;;6305684;22;20011;-67
2023/10/22 04:58:57;;;;;;;0.38;0.22;;;20.00;66.80;;;;;;6279784;22;20065;-67
2023/10/22 05:01:22;;;;;;;1.15;0.28;;;20.00;66.90;;;;;;6279235;22;20339;-67
2023/10/22 05:03:48;;;;;;;1.27;0.30;;;20.00;66.80;;;;;;6278854;22;20027;-67
2023/10/22 05:06:13;;;;;;;0.88;0.20;;;20.00;66.90;;;;;;6279416;22;20011;-67
2023/10/22 05:08:39;;;;;;;0.55;0.25;;;20.00;66.90;;;;;;6307296;22;20045;-67
2023/10/22 05:11:08;;;;;;;0.47;0.20;;;20.00;66.90;;;;;;6306158;22;20035;-67
2023/10/22 05:13:33;;;;;;;;;;;20.10;66.90;;;;;;6280077;22;20019;-67
2023/10/22 05:15:59;;;;;;;0.47;0.20;;;20.00;66.90;;;;;;6307342;22;19953;-67
2023/10/22 05:18:27;;;;;;;1.63;0.30;;;20.00;66.90;;;;;;6305656;22;20042;-67
2023/10/22 05:20:53;;;;;;;0.40;0.30;;;20.00;66.90;;;;;;6278906;22;20016;-67
2023/10/22 05:23:18;;;;;;;0.63;0.30;;;20.00;66.90;;;;;;6279341;22;20062;-67
2023/10/22 05:25:44;;;;;;;0.45;0.20;;;20.00;66.90;;;;;;6305914;22;20027;-67
2023/10/22 05:28:10;;;;;;;0.63;0.20;;;20.00;66.90;;;;;;6280166;22;20022;-68
2023/10/22 05:30:35;;;;;;;1.67;0.20;;;20.00;66.90;;;;;;6279232;22;20104;-67
2023/10/22 05:33:01;;;;;;;1.15;0.40;;;20.00;66.90;;;;;;6278493;22;20100;-67
2023/10/22 05:35:27;;;;;;;1.33;0.20;;;20.00;66.90;;;;;;6306655;22;20090;-67
2023/10/22 05:37:53;;;;;;;0.70;0.20;;;20.00;66.90;;;;;;6307247;22;20011;-67
2023/10/22 05:40:18;;;;;;;0.93;0.20;;;20.00;66.90;;;;;;6305491;22;20478;-67
2023/10/22 05:42:44;;;;;;;1.45;0.30;;;20.00;67.00;;;;;;6279529;22;20054;-67
2023/10/22 05:45:09;;;;;;;0.82;0.20;;;20.00;66.90;;;;;;6278977;22;20012;-67
2023/10/22 05:47:35;;;;;;;0.77;0.28;;;20.00;67.00;;;;;;6305550;22;20455;-68
2023/10/22 05:50:02;;;;;;;0.88;0.20;;;20.00;66.90;;;;;;6279373;22;20094;-67
2023/10/22 05:52:28;;;;;;;0.65;0.30;;;20.00;66.90;;;;;;6278101;22;20122;-66
2023/10/22 05:54:54;;;;;;;1.55;0.35;;;20.00;66.90;;;;;;6278744;22;20020;-65
2023/10/22 05:57:21;;;;;;;1.52;0.30;;;20.00;66.90;;;;;;6306270;22;20343;-65
2023/10/22 05:59:47;;;;;;;0.32;0.20;;;20.00;66.90;;;;;;6278253;22;20439;-65
2023/10/22 06:02:12;;;;;;;1.52;0.20;;;20.00;67.00;;;;;;6276796;22;20510;-64
2023/10/22 06:04:38;;;;;;;1.67;0.35;;;20.00;67.00;;;;;;6278252;22;20020;-66
2023/10/22 06:07:04;;;;;;;2.97;0.20;;;20.00;67.70;;;;;;6305867;22;20023;-66
2023/10/22 06:09:29;;;;;;;0.80;0.30;;;20.00;67.20;;;;;;6280583;22;20015;-66
2023/10/22 06:11:55;;;;;;;3.70;0.30;;;20.00;67.30;;;;;;6280698;22;20027;-65
2023/10/22 06:14:20;;;;;;;2.13;0.40;;;19.90;67.30;;;;;;6307162;22;20057;-66
2023/10/22 06:16:46;;;;;;;2.05;0.30;;;20.00;67.40;;;;;;6281005;22;20100;-66
2023/10/22 06:19:13;;;;;;;1.80;0.40;;;20.00;67.50;;;;;;6307271;22;20072;-66
2023/10/22 06:21:38;;;;;;;3.08;0.30;;;19.90;67.60;;;;;;6307359;22;20019;-66
2023/10/22 06:24:06;;;;;;;0.75;0.20;;;20.00;67.60;;;;;;6280713;22;20022;-66
2023/10/22 06:26:31;;;;;;;1.70;0.30;;;20.00;67.60;;;;;;6308388;22;20023;-66
2023/10/22 06:28:57;;;;;;;0.85;0.20;;;20.00;67.70;;;;;;6280297;22;20022;-66
2023/10/22 06:31:23;;;;;;;1.90;0.40;;;20.00;67.60;;;;;;6280801;22;20039;-66
2023/10/22 06:33:48;;;;;;;1.63;0.30;;;20.00;67.60;;;;;;6308193;22;20023;-66
2023/10/22 06:36:15;;;;;;;0.32;0.20;;;20.00;67.60;;;;;;6307271;22;20142;-66
2023/10/22 06:38:42;;;;;;;0.30;0.20;;;20.00;67.60;;;;;;6308372;22;20015;-67
2023/10/22 06:41:15;;;;;;;0.30;0.20;;;20.00;67.70;;;;;;6308235;22;20015;-68
2023/10/22 06:43:40;;;;;;;0.73;0.20;;;20.00;67.60;;;;;;6307537;22;20424;-64
2023/10/22 06:46:06;;;;;;;1.83;0.20;;;20.00;67.60;;;;;;6308550;22;20019;-65
2023/10/22 06:48:32;;;;;;;1.85;0.20;;;20.00;67.60;;;;;;6279686;22;20019;-65
2023/10/22 06:50:57;;;;;;;2.05;0.20;;;20.00;67.70;;;;;;6280350;22;20106;-65
2023/10/22 06:53:23;;;;;;;1.40;0.30;;;20.00;67.70;;;;;;6280078;22;20022;-65
2023/10/22 06:55:48;;;;;;;1.15;0.50;;;20.00;67.70;;;;;;6279728;22;20094;-65
2023/10/22 06:58:14;;;;;;;0.73;0.30;;;20.10;67.70;;;;;;6307975;22;20027;-66
2023/10/22 07:00:39;;;;;;;1.90;0.30;;;20.10;67.70;;;;;;6279951;22;20022;-66
2023/10/22 07:03:05;;;;;;;0.45;0.30;;;20.10;67.70;;;;;;6253990;22;20019;-66
2023/10/22 07:05:31;;;;;;;1.58;0.40;;;20.10;67.70;;;;;;6280411;22;20391;-66
2023/10/22 07:07:57;;;;;;;1.40;0.45;;;20.10;67.70;;;;;;6306901;22;20509;-66
2023/10/22 07:10:23;;;;;;;1.30;0.32;;;20.10;67.70;;;;;;6278865;22;20033;-67
2023/10/22 07:12:49;;;;;;;2.72;0.43;;;20.10;67.70;;;;;;6280394;22;20411;-67
2023/10/22 07:15:14;;;;;;;1.40;0.47;;;20.10;67.70;;;;;;6280302;22;20019;-68
2023/10/22 07:17:40;;;;;;;2.15;0.38;;;20.10;67.70;;;;;;6279501;22;20011;-64
2023/10/22 07:20:06;;;;;;;2.40;0.50;;;20.10;67.70;;;;;;6307364;22;20027;-68
2023/10/22 07:22:32;;;;;;;2.42;0.65;;;20.10;67.70;;;;;;6280059;22;20451;-66
2023/10/22 07:24:57;;;;;;;4.05;0.80;;;20.20;67.80;;;;;;6306964;22;20026;-66
2023/10/22 07:27:23;;;;;;;2.67;0.55;;;20.20;67.80;;;;;;6280171;22;20015;-65
2023/10/22 07:29:49;;;;;;;2.55;0.77;;;20.20;67.80;;;;;;6307819;22;20098;-64
2023/10/22 07:32:14;;;;;;;3.50;0.50;;;20.20;67.80;;;;;;6306447;22;20061;-65
2023/10/22 07:34:40;;;;;;;1.77;0.60;;;20.20;67.90;;;;;;6279899;22;20026;-66
2023/10/22 07:37:05;;;;;;;1.48;0.50;;;20.20;68.00;;;;;;6280334;22;20156;-65
2023/10/22 07:39:32;;;;;;;4.97;0.60;;;20.20;67.90;;;;;;6278576;22;20019;-65
2023/10/22 07:41:58;;;;;;;1.33;0.47;;;20.20;68.00;;;;;;6307499;22;20019;-65
2023/10/22 07:44:24;;;;;;;1.30;0.57;;;20.30;68.00;;;;;;6307303;22;20069;-65
2023/10/22 07:46:49;;;;;;;2.45;0.60;;;20.30;68.10;;;;;;6279397;22;20019;-65
2023/10/22 07:49:15;;;;;;;2.38;0.57;;;20.30;68.10;;;;;;6307130;22;20027;-65
2023/10/22 07:51:41;;;;;;;3.42;0.68;;;20.30;68.10;;;;;;6307148;22;20434;-63
2023/10/22 07:54:07;;;;;;;1.85;0.75;;;20.30;68.10;;;;;;6305177;22;20092;-74
2023/10/22 07:56:34;;;;;;;4.13;0.43;;;20.30;68.10;;;;;;6279162;22;20073;-64
2023/10/22 07:58:59;;;;;;;1.60;0.55;;;20.30;67.90;;;;;;6305912;22;20455;-65
2023/10/22 08:01:25;;;;;;;1.30;0.60;;;20.30;67.80;;;;;;6279655;22;20059;-65
2023/10/22 08:03:51;;;;;;;1.45;0.60;;;20.30;67.80;;;;;;6306798;22;20023;-63
2023/10/22 08:06:16;;;;;;;2.28;0.43;;;20.30;67.80;;;;;;6305932;22;20011;-64
2023/10/22 08:08:42;;;;;;;2.28;0.55;;;20.30;67.80;;;;;;6279862;22;20042;-64
2023/10/22 08:11:08;;;;;;;1.40;0.50;;;20.30;67.80;;;;;;6307244;22;20078;-64
2023/10/22 08:13:33;;;;;;;1.73;0.50;;;20.30;67.80;;;;;;6306720;22;20019;-64
2023/10/22 08:16:05;;;;;;;2.83;0.68;;;20.30;67.80;;;;;;6279995;22;20427;-65
2023/10/22 08:18:31;;;;;;;1.83;0.65;;;20.30;67.70;;;;;;6279879;22;20526;-65
2023/10/22 08:21:03;;;;;;;1.30;0.50;;;20.30;67.60;;;;;;6306750;22;20038;-65
2023/10/22 08:23:32;;;;;;;2.08;0.55;;;20.30;67.60;;;;;;6305925;22;20019;-64
2023/10/22 08:25:57;;;;;;;4.90;0.75;;;20.30;67.60;;;;;;6279723;22;20043;-64
2023/10/22 08:28:23;;;;;;;2.90;1.08;;;20.30;68.20;;;;;;6305814;22;20470;-65
2023/10/22 08:30:49;;;;;;;1.88;0.50;;;20.30;67.50;;;;;;6279478;22;20050;-65
2023/10/22 08:33:15;;;;;;;3.58;0.80;;;20.30;67.50;;;;;;6306508;22;20022;-65
2023/10/22 08:35:40;;;;;;;2.88;0.80;;;20.30;67.50;;;;;;6278214;22;20019;-64
2023/10/22 08:38:06;;;;;;;3.80;1.08;;;20.30;67.50;;;;;;6279399;22;20019;-62
2023/10/22 08:40:41;;;;;;;2.45;1.00;;;20.30;67.50;;;;;;6303985;22;20007;-65
2023/10/22 08:43:15;;;;;;;3.50;0.70;;;20.30;67.60;;;;;;6278474;22;20435;-65
2023/10/22 08:45:41;;;;;;;2.63;0.82;;;20.30;67.80;;;;;;6280579;22;20497;-66
2023/10/22 08:48:06;;;;;;;2.25;0.95;;;20.30;68.40;;;;;;6252817;22;20023;-66
2023/10/22 08:50:33;;;;;;;1.98;0.80;;;20.40;67.90;;;;;;6253295;22;20462;-66
2023/10/22 08:52:58;;;;;;;2.90;0.82;;;20.40;67.90;;;;;;6279400;22;20370;-66
2023/10/22 08:55:24;;;;;;;4.00;0.90;;;20.40;68.00;;;;;;6278079;22;20019;-67
2023/10/22 08:57:49;;;;;;;2.38;0.80;;;20.40;68.00;;;;;;6228789;22;20019;-66
2023/10/22 09:00:16;;;;;;;4.10;1.10;;;20.40;68.00;;;;;;6279149;22;20106;-67
2023/10/22 09:02:42;;;;;;;2.05;1.00;;;20.40;68.00;;;;;;6278715;22;20062;-64
2023/10/22 09:05:08;;;;;;;3.97;0.98;;;20.40;68.00;;;;;;6228125;22;20011;-65
2023/10/22 09:07:52;;;;;;;4.70;0.90;;;20.40;68.00;;;;;;6307054;22;20019;-64
2023/10/22 09:10:29;;;;;;;2.20;0.80;;;20.40;67.90;;;;;;6305416;22;20094;-64
2023/10/22 09:13:14;;;;;;;6.63;1.20;;;20.50;67.90;;;;;;6279323;22;20027;-62
2023/10/22 09:15:44;;;;;;;4.40;1.10;;;20.50;67.90;;;;;;6256996;22;20068;-64
2023/10/22 09:18:10;;;;;;;5.10;1.15;;;20.50;68.00;;;;;;6305213;22;20019;-63
2023/10/22 09:20:36;;;;;;;4.38;1.00;;;20.50;68.00;;;;;;6304259;22;20019;-63
2023/10/22 09:23:19;;;;;;;6.63;1.88;;;20.50;68.00;;;;;;6306945;22;20074;-63
2023/10/22 09:25:51;;;;;;;4.93;1.30;;;20.50;68.10;;;;;;6305954;22;20019;-63
2023/10/22 09:28:22;;;;;;;6.28;1.15;;;20.50;68.10;;;;;;6306530;22;20016;-62
2023/10/22 09:31:07;;;;;;;4.50;0.90;;;20.50;68.10;;;;;;6305862;22;20015;-63
2023/10/22 09:33:34;;;;;;;4.13;1.40;;;20.50;68.10;;;;;;6306247;22;20015;-63
2023/10/22 09:36:01;;;;;;;4.32;1.00;;;20.60;68.20;;;;;;6279388;22;20073;-63
2023/10/22 09:38:48;;;;;;;7.53;1.27;;;20.50;68.20;;;;;;6278207;22;20026;-63
2023/10/22 09:41:23;;;;;;;4.45;1.20;;;20.60;68.30;;;;;;6306878;22;20102;-63
2023/10/22 09:43:52;;;;;;;6.07;1.45;;;20.60;68.30;;;;;;6308595;22;20024;-63
2023/10/22 09:46:21;;;;;;;4.35;1.13;;;20.60;68.30;;;;;;6307696;22;20038;-63
2023/10/22 09:48:50;;;;;;;4.30;1.60;;;20.60;68.30;;;;;;6280956;22;20027;-62
2023/10/22 09:51:17;;;;;;;3.95;1.20;;;20.60;68.40;;;;;;6309342;22;20022;-63
2023/10/22 09:53:52;;;;;;;7.85;1.40;;;20.60;68.30;;;;;;6279813;22;20094;-64
2023/10/22 09:56:20;;;;;;;5.13;1.42;;;20.60;68.30;;;;;;6280937;22;20015;-64
2023/10/22 09:58:48;;;;;;;9.15;1.77;;;20.60;68.30;;;;;;6280423;22;20023;-64
2023/10/22 10:01:14;;;;;;;6.20;1.40;;;20.60;68.30;;;;;;6274950;22;20023;-65
2023/10/22 10:03:40;;;;;;;4.63;1.23;;;20.60;68.40;;;;;;6277109;22;20024;-65
2023/10/22 10:06:09;;;;;;;3.92;1.70;;;20.60;68.40;;;;;;6276209;22;20194;-64
2023/10/22 10:08:36;;;;;;;3.88;1.70;;;20.60;68.40;;;;;;6275501;22;20072;-63
2023/10/22 10:11:03;;;;;;;2.90;1.40;;;20.60;68.40;;;;;;6250176;22;20062;-62
2023/10/22 10:13:28;;;;;;;3.78;1.45;;;20.60;68.40;;;;;;6248334;22;20020;-64
2023/10/22 10:16:02;;;;;;;4.15;1.75;;;20.60;68.40;;;;;;6275106;22;20074;-65
2023/10/22 10:19:02;;;;;;;4.13;1.67;;;20.60;68.40;;;;;;6275025;22;20766;-63
2023/10/22 10:21:34;;;;;;;7.25;1.48;;;20.60;68.40;;;;;;6275988;22;20073;-63
2023/10/22 10:24:17;;;;;;;3.25;1.50;;;20.60;68.40;;;;;;6275305;22;20338;-63
2023/10/22 10:26:44;;;;;;;3.15;1.25;;;20.60;68.40;;;;;;6274520;22;20046;-65
2023/10/22 10:29:30;;;;;;;5.70;1.30;;;20.60;68.40;;;;;;6276301;22;20019;-64
2023/10/22 10:32:15;;;;;;;7.10;1.67;;;20.60;68.40;;;;;;6275155;22;20074;-64
2023/10/22 10:34:43;;;;;;;4.32;1.45;;;20.60;68.50;;;;;;6274101;22;20094;-64
2023/10/22 10:37:21;;;;;;;5.43;1.73;;;20.60;68.50;;;;;;6275060;22;20023;-63
2023/10/22 10:39:47;;;;;;;;;;;20.60;68.40;;;;;;6275163;22;20440;-63
2023/10/22 10:42:28;;;;;;;5.50;1.50;;;20.60;68.30;;;;;;6274187;22;19922;-64
2023/10/22 10:45:00;;;;;;;6.10;1.60;;;20.60;68.30;;;;;;6275675;22;20456;-64
2023/10/22 10:47:29;;;;;;;2.83;1.33;;;20.60;68.20;;;;;;6275457;22;20058;-63
2023/10/22 10:50:03;;;;;;;;;;;20.60;68.20;;;;;;6276799;22;20051;-63
2023/10/22 10:52:34;;;;;;;6.07;1.70;;;20.60;68.20;;;;;;6275074;22;19915;-63
2023/10/22 10:55:09;;;;;;;3.50;1.40;;;20.60;68.10;;;;;;6274036;22;20057;-67
2023/10/22 10:57:36;;;;;;;4.18;1.38;;;20.60;68.00;;;;;;6275381;22;20086;-63
2023/10/22 11:00:04;;;;;;;8.05;1.70;;;20.60;68.00;;;;;;6274774;22;20122;-63
2023/10/22 11:02:30;;;;;;;4.63;1.40;;;20.60;68.00;;;;;;6274104;22;20066;-63
2023/10/22 11:04:56;;;;;;;3.97;1.48;;;20.60;68.00;;;;;;6249647;22;20023;-63
2023/10/22 11:07:22;;;;;;;5.85;1.67;;;20.60;68.10;;;;;;6274598;22;20078;-63
2023/10/22 11:09:47;;;;;;;6.45;1.50;;;20.60;68.10;;;;;;6248790;22;20031;-62
2023/10/22 11:12:13;;;;;;;3.97;1.42;;;20.60;68.10;;;;;;6275188;22;20475;-63
2023/10/22 11:14:38;;;;;;;7.93;1.48;;;20.60;68.10;;;;;;6274919;22;20019;-63
2023/10/22 11:17:05;;;;;;;6.20;1.50;;;20.60;68.20;;;;;;6276576;22;20118;-63
2023/10/22 11:19:31;;;;;;;5.10;1.50;;;20.60;68.30;;;;;;6276921;22;20031;-63
2023/10/22 11:21:57;;;;;;;4.55;1.15;;;20.60;68.30;;;;;;6275308;22;20478;-64
2023/10/22 11:24:26;;;;;;;4.07;1.40;;;20.60;68.30;;;;;;6273747;22;20020;-63
2023/10/22 11:26:51;;;;;;;5.20;1.38;;;20.60;68.40;;;;;;6249902;22;20077;-63
2023/10/22 11:29:17;;;;;;;5.97;1.48;;;20.60;68.30;;;;;;6224258;22;20091;-62
2023/10/22 11:31:53;;;;;;;3.33;1.20;;;20.60;68.40;;;;;;6275863;22;20020;-64
2023/10/22 11:34:18;;;;;;;3.92;1.40;;;20.60;68.40;;;;;;6274243;22;20162;-62
2023/10/22 11:36:44;;;;;;;3.47;1.30;;;20.60;68.40;;;;;;6274581;22;20047;-61
2023/10/22 11:39:19;;;;;;;4.93;1.30;;;20.60;68.40;;;;;;6274698;22;20024;-63
2023/10/22 11:41:45;;;;;;;8.68;1.65;;;20.60;68.40;;;;;;6274973;22;20069;-64
2023/10/22 11:44:30;;;;;;;4.32;1.15;;;20.60;68.40;;;;;;6273254;22;20015;-64
2023/10/22 11:46:57;;;;;;;3.80;1.67;;;20.60;68.40;;;;;;6274885;22;20524;-64
2023/10/22 11:49:23;;;;;;;4.78;1.20;;;20.50;69.00;;;;;;6274434;22;20019;-64
2023/10/22 11:51:49;;;;;;;4.72;1.52;;;20.60;68.50;;;;;;6274228;22;20054;-64
2023/10/22 11:54:14;;;;;;;5.05;1.20;;;20.50;68.40;;;;;;6276592;22;20020;-64
2023/10/22 11:56:40;;;;;;;3.50;1.35;;;20.50;68.40;;;;;;6276997;22;20016;-64
2023/10/22 11:59:07;;;;;;;3.70;1.10;;;20.50;68.40;;;;;;6275690;22;20368;-64
2023/10/22 12:01:33;;;;;;;4.10;1.60;;;20.50;68.50;;;;;;6286980;22;20037;-64
2023/10/22 12:03:59;;;;;;;3.72;1.27;;;20.50;68.50;;;;;;6279931;22;20384;-63
2023/10/22 12:06:24;;;;;;;3.33;1.35;;;20.50;68.50;;;;;;6253542;22;20012;-64
2023/10/22 12:08:50;;;;;;;3.63;1.27;;;20.50;68.50;;;;;;6279848;22;20308;-64
2023/10/22 12:11:16;;;;;;;4.72;1.30;;;20.50;68.60;;;;;;6279401;22;20020;-64
2023/10/22 12:13:41;;;;;;;4.10;1.30;;;20.50;68.70;;;;;;6278984;22;20023;-64
2023/10/22 12:16:07;;;;;;;3.33;1.40;;;20.50;68.70;;;;;;6307418;22;20317;-64
2023/10/22 12:18:32;;;;;;;4.32;1.40;;;20.40;68.60;;;;;;6279505;22;20027;-64
2023/10/22 12:20:58;;;;;;;3.60;1.00;;;20.40;68.60;;;;;;6306732;22;20424;-64
2023/10/22 12:23:24;;;;;;;3.90;1.25;;;20.40;68.60;;;;;;6306726;22;20351;-63
2023/10/22 12:25:50;;;;;;;3.60;1.35;;;20.40;68.60;;;;;;6279323;22;20086;-63
2023/10/22 12:28:16;;;;;;;3.08;1.10;;;20.40;68.60;;;;;;6303910;22;20230;-63
2023/10/22 12:30:41;;;;;;;5.40;1.90;;;20.40;68.60;;;;;;6306639;22;20015;-64
2023/10/22 12:33:09;;;;;;;6.75;1.50;;;20.40;68.70;;;;;;6304769;22;20022;-63
2023/10/22 12:35:39;;;;;;;3.13;1.30;;;20.40;68.70;;;;;;6305676;22;20012;-63
2023/10/22 12:38:05;;;;;;;5.97;1.50;;;20.40;68.70;;;;;;6278324;22;20011;-65
2023/10/22 12:40:30;;;;;;;4.07;1.60;;;20.40;68.70;;;;;;6276794;22;20015;-63
2023/10/22 12:42:56;;;;;;;4.15;1.52;;;20.40;68.80;;;;;;6276294;22;20113;-64
2023/10/22 12:45:21;;;;;;;4.25;1.45;;;20.40;68.80;;;;;;6278340;22;20081;-64
2023/10/22 12:47:47;;;;;;;2.80;1.30;;;20.40;68.90;;;;;;6277172;22;20389;-64